Time;durP1;ratioP1;P1;durP2;ratioP2;P2;SDS_P1;SDS_P2;PMS_P1;PMS_P2;Temp;Humidity;BMP_temperature;BMP_pressure;BME280_temperature;BME280_humidity;BME280_pressure;Samples;Min_cycle;Max_cycle;Signal;HPM_P1;HPM_P2
2021/01/22 00:01:39;;;;;;;3.08;1.90;;;;;;;11.25;67.47;96500.22;4952028;28;20231;-80
2021/01/22 00:04:06;;;;;;;3.10;2.28;;;;;;;11.24;67.07;96483.25;4927550;29;20232;-80
2021/01/22 00:06:33;;;;;;;3.35;1.90;;;;;;;11.25;67.16;96486.78;4963159;28;20227;-80
2021/01/22 00:09:03;;;;;;;4.65;1.70;;;;;;;11.31;66.83;96483.41;4936047;28;20271;-78
2021/01/22 00:11:30;;;;;;;1.90;1.70;;;;;;;11.36;66.85;96499.91;4965574;28;20196;-80
2021/01/22 00:13:57;;;;;;;2.58;1.95;;;;;;;11.38;66.63;96474.47;4971980;28;20240;-81
2021/01/22 00:16:24;;;;;;;2.97;1.70;;;;;;;11.33;66.75;96470.63;4972531;28;20223;-80
2021/01/22 00:18:50;;;;;;;2.85;1.90;;;;;;;11.31;66.90;96478.03;4952295;28;20238;-80
2021/01/22 00:21:19;;;;;;;1.77;1.67;;;;;;;11.28;67.61;96456.84;4937331;28;20296;-80
2021/01/22 00:23:51;;;;;;;2.65;2.13;;;;;;;11.27;68.54;96465.94;4949176;28;20228;-80
2021/01/22 00:26:19;;;;;;;3.28;2.10;;;;;;;11.25;68.03;96454.50;4956596;28;20274;-80
2021/01/22 00:28:45;;;;;;;1.42;1.33;;;;;;;11.24;67.33;96467.09;4947177;29;20202;-82
2021/01/22 00:31:12;;;;;;;2.38;1.65;;;;;;;11.11;68.80;96444.44;4954699;28;20247;-79
2021/01/22 00:33:41;;;;;;;3.80;1.85;;;;;;;11.01;69.94;96449.97;4947642;28;20255;-80
2021/01/22 00:36:08;;;;;;;3.47;2.00;;;;;;;10.96;70.42;96432.66;4961057;28;20260;-81
2021/01/22 00:38:35;;;;;;;1.70;1.60;;;;;;;10.86;70.04;96434.69;4930657;28;20277;-79
2021/01/22 00:41:02;;;;;;;3.08;1.92;;;;;;;10.84;70.45;96428.63;4979025;28;20244;-79
2021/01/22 00:43:29;;;;;;;2.85;1.67;;;;;;;10.92;70.26;96420.59;4985335;28;20219;-80
2021/01/22 00:45:56;;;;;;;1.65;1.50;;;;;;;10.97;70.19;96437.03;4974642;28;20220;-79
2021/01/22 00:48:26;;;;;;;1.80;1.50;;;;;;;10.94;70.40;96440.06;4964829;28;20228;-81
2021/01/22 00:50:55;;;;;;;3.83;1.90;;;;;;;10.93;70.41;96443.75;4953096;28;20228;-82
2021/01/22 00:53:23;;;;;;;2.38;2.00;;;;;;;10.90;70.44;96444.06;4937574;28;20224;-81
2021/01/22 00:55:50;;;;;;;3.13;1.98;;;;;;;10.93;70.77;96443.75;4950463;29;20755;-80
2021/01/22 00:58:37;;;;;;;1.65;1.50;;;;;;;10.91;70.75;96454.66;4951374;28;20222;-81
2021/01/22 01:01:26;;;;;;;2.05;1.80;;;;;;;10.80;70.67;96435.34;4930311;28;20220;-79
2021/01/22 01:03:58;;;;;;;1.75;1.55;;;;;;;10.79;70.31;96442.56;4937825;28;20280;-80
2021/01/22 01:06:27;;;;;;;3.50;1.70;;;;;;;10.85;70.27;96438.38;4933998;29;20224;-81
2021/01/22 01:08:55;;;;;;;3.20;1.73;;;;;;;10.75;70.42;96427.81;4949130;28;20231;-81
2021/01/22 01:11:37;;;;;;;1.50;1.40;;;;;;;10.72;69.71;96428.13;4952500;28;20228;-80
2021/01/22 01:14:15;;;;;;;2.00;1.67;;;;;;;10.81;70.53;96421.75;4980895;28;20240;-80
2021/01/22 01:16:42;;;;;;;2.30;1.55;;;;;;;10.79;69.78;96418.38;4968935;28;20219;-79
2021/01/22 01:19:09;;;;;;;1.73;1.60;;;;;;;10.84;69.52;96420.56;4949409;28;20295;-79
2021/01/22 01:21:35;;;;;;;2.67;1.90;;;;;;;10.86;69.76;96426.63;4963905;28;20225;-80
2021/01/22 01:24:02;;;;;;;2.20;1.73;;;;;;;10.82;70.01;96425.25;4969665;29;20247;-80
2021/01/22 01:26:29;;;;;;;3.83;1.85;;;;;;;10.81;69.83;96423.59;4955085;28;20295;-79
2021/01/22 01:28:56;;;;;;;5.03;1.90;;;;;;;10.78;70.05;96423.94;4971662;28;20196;-78
2021/01/22 01:31:22;;;;;;;2.55;1.88;;;;;;;10.75;70.47;96410.81;4966149;28;20239;-79
2021/01/22 01:33:52;;;;;;;2.97;1.60;;;;;;;10.72;70.34;96432.66;4939194;28;20236;-80
2021/01/22 01:36:19;;;;;;;4.15;1.70;;;;;;;10.74;70.60;96411.84;4980912;28;20242;-79
2021/01/22 01:38:45;;;;;;;2.47;1.65;;;;;;;10.72;70.82;96409.31;4967362;28;21055;-81
2021/01/22 01:41:12;;;;;;;3.17;2.00;;;;;;;10.69;71.03;96427.59;4956229;28;20176;-79
2021/01/22 01:43:40;;;;;;;2.22;1.65;;;;;;;10.66;70.81;96422.59;4962851;28;20223;-80
2021/01/22 01:46:06;;;;;;;2.45;1.60;;;;;;;10.74;70.85;96411.84;4982685;28;20225;-79
2021/01/22 01:48:39;;;;;;;5.40;2.33;;;;;;;10.71;70.70;96409.47;4954441;28;20355;-80
2021/01/22 01:51:06;;;;;;;2.97;1.98;;;;;;;10.68;70.93;96399.06;4940158;28;20821;-80
2021/01/22 01:53:33;;;;;;;4.05;2.00;;;;;;;10.65;70.74;96415.50;4946612;28;20208;-81
2021/01/22 01:56:00;;;;;;;5.15;1.67;;;;;;;10.69;70.15;96406.97;4943567;29;20494;-80
2021/01/22 01:58:29;;;;;;;6.00;2.30;;;;;;;10.76;69.88;96396.38;4975701;28;20260;-80
2021/01/22 02:00:56;;;;;;;3.38;2.00;;;;;;;10.75;69.80;96374.06;4979005;28;20239;-81
2021/01/22 02:03:24;;;;;;;4.82;2.90;;;;;;;10.84;69.59;96388.31;4958854;28;20217;-81
2021/01/22 02:05:51;;;;;;;2.75;2.33;;;;;;;10.93;68.54;96392.69;4943462;28;20259;-79
2021/01/22 02:08:18;;;;;;;3.83;2.10;;;;;;;10.94;68.24;96402.44;4961188;28;20208;-79
2021/01/22 02:10:46;;;;;;;2.30;1.88;;;;;;;10.93;67.72;96376.56;4982775;28;20196;-81
2021/01/22 02:13:14;;;;;;;9.63;2.80;;;;;;;10.98;67.49;96387.66;4950556;29;20232;-80
2021/01/22 02:15:41;;;;;;;4.25;2.17;;;;;;;10.99;68.86;96392.00;4946787;29;20235;-79
2021/01/22 02:18:10;;;;;;;3.75;2.20;;;;;;;10.87;69.23;96383.47;4937368;29;20246;-80
2021/01/22 02:20:55;;;;;;;4.00;2.00;;;;;;;10.87;69.13;96393.34;4968056;28;20308;-79
2021/01/22 02:23:25;;;;;;;6.05;2.13;;;;;;;10.79;68.75;96396.88;4950272;28;20203;-79
2021/01/22 02:25:56;;;;;;;3.83;2.30;;;;;;;10.86;68.46;96403.25;4961624;28;20774;-80
2021/01/22 02:28:23;;;;;;;3.40;2.30;;;;;;;10.90;68.14;96387.63;4958466;28;20289;-81
2021/01/22 02:30:51;;;;;;;4.50;2.47;;;;;;;10.89;68.01;96408.31;4952893;28;20244;-83
2021/01/22 02:33:20;;;;;;;3.85;1.95;;;;;;;10.93;67.54;96400.75;4981117;28;20206;-81
2021/01/22 02:35:54;;;;;;;3.00;1.80;;;;;;;10.96;67.15;96403.94;4979905;28;20239;-81
2021/01/22 02:38:23;;;;;;;4.28;2.42;;;;;;;11.01;67.16;96392.66;4942148;29;20261;-80
2021/01/22 02:40:56;;;;;;;6.15;2.38;;;;;;;11.00;67.33;96404.44;4919958;29;20320;-81
2021/01/22 02:43:27;;;;;;;5.20;2.20;;;;;;;11.07;67.60;96405.44;4939250;28;20256;-83
2021/01/22 02:45:55;;;;;;;7.30;2.13;;;;;;;11.10;66.42;96415.88;4948271;29;20227;-81
2021/01/22 02:48:23;;;;;;;3.03;1.98;;;;;;;11.10;66.72;96415.88;4944823;28;20247;-78
2021/01/22 02:50:49;;;;;;;3.95;2.03;;;;;;;11.07;66.49;96408.97;4980260;28;20339;-79
2021/01/22 02:53:16;;;;;;;4.35;1.98;;;;;;;11.15;66.94;96417.03;4956772;28;20203;-80
2021/01/22 02:55:43;;;;;;;5.38;2.10;;;;;;;11.20;65.85;96411.13;4938575;29;20228;-82
2021/01/22 02:58:25;;;;;;;2.88;1.85;;;;;;;11.11;66.34;96406.78;4925361;29;20236;-81
2021/01/22 03:00:59;;;;;;;3.05;1.92;;;;;;;11.13;66.13;96404.75;4921862;28;20260;-82
2021/01/22 03:03:40;;;;;;;4.40;2.20;;;;;;;11.05;66.95;96420.91;4958544;28;20464;-82
2021/01/22 03:06:13;;;;;;;4.22;2.00;;;;;;;11.01;67.51;96411.50;4944377;28;20243;-82
2021/01/22 03:08:42;;;;;;;6.95;2.33;;;;;;;10.97;67.48;96400.25;4944867;28;20714;-80
2021/01/22 03:11:10;;;;;;;3.67;2.00;;;;;;;10.92;68.20;96402.59;4948757;28;20211;-81
2021/01/22 03:13:40;;;;;;;4.22;2.33;;;;;;;10.94;67.74;96402.44;4932873;28;20227;-80
2021/01/22 03:16:07;;;;;;;5.78;1.90;;;;;;;10.92;67.56;96412.50;4946787;28;20223;-78
2021/01/22 03:18:33;;;;;;;3.78;2.15;;;;;;;10.92;67.73;96428.66;4962155;28;20243;-82
2021/01/22 03:21:18;;;;;;;;;;;;;;;;;;;;;
2021/01/22 03:23:48;;;;;;;4.35;2.08;;;;;;;10.88;68.28;96448.78;4934870;28;20232;-82
2021/01/22 03:26:15;;;;;;;5.32;2.00;;;;;;;10.85;68.62;96438.38;4938151;28;20248;-80
2021/01/22 03:28:41;;;;;;;3.30;2.03;;;;;;;10.75;69.22;96432.31;4952845;28;20207;-82
2021/01/22 03:31:10;;;;;;;3.22;1.92;;;;;;;10.72;70.24;96427.28;4908255;29;20228;-80
2021/01/22 03:33:37;;;;;;;3.83;2.00;;;;;;;10.74;70.36;96419.91;4933184;28;20228;-80
2021/01/22 03:36:05;;;;;;;2.90;2.15;;;;;;;10.67;69.87;96424.25;4961585;28;20211;-79
2021/01/22 03:38:32;;;;;;;5.40;2.40;;;;;;;10.67;70.13;96432.31;4955519;28;20199;-79
2021/01/22 03:40:58;;;;;;;5.00;1.88;;;;;;;10.67;69.90;96414.34;4957151;28;20212;-80
2021/01/22 03:43:26;;;;;;;4.90;2.30;;;;;;;10.70;69.87;96437.34;4945878;28;20216;-80
2021/01/22 03:45:53;;;;;;;3.60;2.30;;;;;;;10.66;70.36;96419.91;4950276;28;20235;-82
2021/01/22 03:48:20;;;;;;;4.35;2.33;;;;;;;10.62;70.35;96421.22;4928643;28;20227;-81
2021/01/22 03:50:46;;;;;;;4.82;1.95;;;;;;;10.57;71.39;96428.94;4960549;28;20227;-80
2021/01/22 03:53:15;;;;;;;2.60;1.90;;;;;;;10.59;71.26;96426.94;4965351;28;20180;-80
2021/01/22 03:55:52;;;;;;;2.05;1.60;;;;;;;10.55;70.42;96422.91;4983482;28;20223;-81
2021/01/22 03:58:21;;;;;;;6.88;2.17;;;;;;;10.56;71.11;96419.19;4936312;28;20251;-82
2021/01/22 04:00:48;;;;;;;5.13;2.30;;;;;;;10.58;70.39;96419.88;4943410;28;20227;-82
2021/01/22 04:03:15;;;;;;;6.38;2.13;;;;;;;10.57;71.52;96421.72;4907452;29;20226;-80
2021/01/22 04:05:42;;;;;;;3.63;2.10;;;;;;;10.50;71.65;96431.47;4913857;28;20252;-82
2021/01/22 04:08:08;;;;;;;6.88;2.40;;;;;;;10.39;72.52;96428.22;4960120;28;20192;-81
2021/01/22 04:10:35;;;;;;;2.83;1.98;;;;;;;10.34;73.17;96420.66;4934601;28;20219;-81
2021/01/22 04:13:03;;;;;;;2.78;1.80;;;;;;;10.35;73.58;96424.22;4921349;29;20300;-82
2021/01/22 04:15:31;;;;;;;5.43;2.10;;;;;;;10.30;74.42;96434.59;4920455;28;20263;-82
2021/01/22 04:18:01;;;;;;;4.95;1.80;;;;;;;10.15;74.66;96433.56;4945279;28;20311;-82
2021/01/22 04:20:28;;;;;;;4.22;1.95;;;;;;;10.07;75.64;96452.28;4970328;28;20224;-80
2021/01/22 04:22:58;;;;;;;5.35;1.52;;;;;;;9.94;76.05;96425.03;4940788;28;20207;-82
2021/01/22 04:25:25;;;;;;;10.25;1.63;;;;;;;9.97;76.57;96430.09;4992302;23;20238;-79
2021/01/22 04:27:51;;;;;;;8.35;2.05;;;;;;;9.93;77.03;96418.84;4945363;28;20270;-82
2021/01/22 04:30:21;;;;;;;5.65;2.10;;;;;;;9.87;77.04;96415.94;4946677;28;20218;-81
2021/01/22 04:32:48;;;;;;;5.25;1.90;;;;;;;9.82;77.91;96415.63;4940713;28;20215;-81
2021/01/22 04:35:15;;;;;;;2.28;1.80;;;;;;;9.84;78.60;96411.75;4970910;28;20278;-81
2021/01/22 04:37:42;;;;;;;6.78;2.40;;;;;;;9.84;78.89;96402.88;4964812;28;20242;-80
2021/01/22 04:40:10;;;;;;;3.67;1.75;;;;;;;9.84;77.82;96406.38;4959690;28;20223;-81
2021/01/22 04:42:39;;;;;;;3.55;1.60;;;;;;;9.77;77.95;96407.22;4972008;28;20238;-82
2021/01/22 04:45:12;;;;;;;4.78;3.70;;;;;;;9.80;78.29;96402.34;4980664;28;20617;-81
2021/01/22 04:47:43;;;;;;;3.97;1.90;;;;;;;9.83;78.78;96401.19;4948013;28;20228;-81
2021/01/22 04:50:13;;;;;;;4.78;1.67;;;;;;;9.81;77.45;96392.44;4967947;28;20199;-81
2021/01/22 04:52:41;;;;;;;2.72;1.58;;;;;;;9.89;78.18;96393.31;4960840;28;20337;-82
2021/01/22 04:55:15;;;;;;;4.78;1.95;;;;;;;9.89;76.88;96387.13;4942961;28;20227;-81
2021/01/22 04:57:46;;;;;;;9.73;2.00;;;;;;;9.96;76.45;96388.97;4975794;28;20325;-82
2021/01/22 05:00:14;;;;;;;3.60;1.70;;;;;;;10.05;76.43;96384.53;4964901;28;20266;-80
2021/01/22 05:02:41;;;;;;;4.97;1.85;;;;;;;10.11;76.53;96389.22;4961158;28;20227;-81
2021/01/22 05:05:11;;;;;;;2.58;2.05;;;;;;;10.03;76.34;96383.81;4978164;28;22043;-80
2021/01/22 05:07:40;;;;;;;6.68;1.88;;;;;;;9.95;76.05;96375.75;4958917;28;20234;-81
2021/01/22 05:10:08;;;;;;;3.28;1.90;;;;;;;9.99;76.67;96380.63;4949042;28;20211;-81
2021/01/22 05:12:39;;;;;;;3.10;1.73;;;;;;;9.99;76.42;96379.78;4961701;28;20318;-82
2021/01/22 05:15:17;;;;;;;3.08;2.30;;;;;;;10.04;77.18;96377.47;4944318;28;20734;-82
2021/01/22 05:17:58;;;;;;;3.38;1.95;;;;;;;10.06;75.51;96388.88;4958306;28;20728;-82
2021/01/22 05:20:41;;;;;;;3.45;1.80;;;;;;;10.12;76.35;96385.53;4945447;28;20261;-81
2021/01/22 05:23:09;;;;;;;4.45;2.05;;;;;;;10.09;75.65;96385.88;4984664;28;20171;-80
2021/01/22 05:25:59;;;;;;;5.32;2.00;;;;;;;10.00;76.10;96373.38;4992394;28;20222;-82
2021/01/22 05:28:42;;;;;;;1.70;1.60;;;;;;;9.99;76.32;96363.66;4982764;28;20202;-80
2021/01/22 05:31:10;;;;;;;3.67;1.58;;;;;;;9.97;76.13;96377.25;4998252;28;20211;-79
2021/01/22 05:34:02;;;;;;;5.20;2.10;;;;;;;9.96;76.21;96370.19;4982287;28;20226;-79
2021/01/22 05:36:30;;;;;;;4.95;2.65;;;;;;;9.92;76.46;96373.38;4980065;28;20273;-80
2021/01/22 05:39:02;;;;;;;4.95;1.70;;;;;;;9.89;77.31;96366.47;4966912;28;20245;-81
2021/01/22 05:41:30;;;;;;;3.97;2.00;;;;;;;9.88;77.26;96369.31;4963975;28;20341;-82
2021/01/22 05:43:57;;;;;;;2.00;1.80;;;;;;;9.95;78.20;96370.38;4980288;28;20219;-82
2021/01/22 05:46:27;;;;;;;3.15;2.03;;;;;;;9.92;77.81;96371.53;4946235;28;20223;-82
2021/01/22 05:49:08;;;;;;;2.25;1.70;;;;;;;9.92;78.19;96368.00;4982014;28;20249;-82
2021/01/22 05:51:36;;;;;;;4.15;2.40;;;;;;;9.85;78.52;96366.97;4970864;28;20232;-80
2021/01/22 05:54:05;;;;;;;4.78;2.67;;;;;;;9.88;77.98;96369.31;4992943;28;20211;-81
2021/01/22 05:56:35;;;;;;;3.72;1.95;;;;;;;9.83;78.03;96363.63;4975780;28;20248;-80
2021/01/22 05:59:13;;;;;;;3.92;1.52;;;;;;;9.87;77.85;96371.19;4970912;28;20191;-82
2021/01/22 06:01:40;;;;;;;3.30;1.65;;;;;;;9.87;78.00;96364.97;4967085;28;20223;-81
2021/01/22 06:04:08;;;;;;;3.70;1.83;;;;;;;9.81;78.07;96357.56;4979457;28;20235;-80
2021/01/22 06:06:34;;;;;;;4.32;2.50;;;;;;;9.76;79.05;96362.59;4978289;28;20223;-81
2021/01/22 06:09:02;;;;;;;2.80;1.70;;;;;;;9.74;78.53;96373.50;4965817;28;20242;-80
2021/01/22 06:11:31;;;;;;;4.45;1.90;;;;;;;9.75;79.02;96367.13;4948407;28;20198;-82
2021/01/22 06:13:59;;;;;;;2.42;1.70;;;;;;;9.69;79.26;96374.97;4937366;28;20305;-81
2021/01/22 06:16:27;;;;;;;2.30;1.70;;;;;;;9.71;78.78;96362.25;4973351;28;20222;-82
2021/01/22 06:19:01;;;;;;;4.90;2.15;;;;;;;9.68;79.09;96365.22;4974895;28;20218;-82
2021/01/22 06:21:35;;;;;;;3.58;1.92;;;;;;;9.67;79.29;96356.38;4953382;28;20242;-81
2021/01/22 06:24:03;;;;;;;2.88;1.83;;;;;;;9.58;79.26;96361.84;4945950;28;20362;-81
2021/01/22 06:26:35;;;;;;;5.13;1.85;;;;;;;9.58;80.01;96370.72;4952421;28;20289;-81
2021/01/22 06:29:05;;;;;;;7.10;1.98;;;;;;;9.59;79.54;96371.59;4963596;28;20249;-82
2021/01/22 06:31:32;;;;;;;4.93;2.00;;;;;;;9.54;80.07;96368.53;4973105;28;20226;-82
2021/01/22 06:34:00;;;;;;;4.65;1.67;;;;;;;9.54;80.38;96357.81;4956395;28;20253;-82
2021/01/22 06:36:31;;;;;;;4.55;2.42;;;;;;;9.55;80.85;96370.22;4968872;28;20868;-81
2021/01/22 06:39:01;;;;;;;2.90;2.25;;;;;;;9.53;81.39;96369.53;4970514;28;20214;-80
2021/01/22 06:41:28;;;;;;;9.95;2.70;;;;;;;9.50;81.48;96370.69;4984506;28;20222;-79
2021/01/22 06:43:59;;;;;;;7.97;2.95;;;;;;;9.42;82.30;96376.03;4975119;28;20223;-81
2021/01/22 06:46:29;;;;;;;8.77;2.45;;;;;;;9.47;82.35;96372.88;4974761;28;20277;-81
2021/01/22 06:48:58;;;;;;;5.35;2.13;;;;;;;9.46;82.43;96376.53;4946443;28;20573;-81
2021/01/22 06:51:34;;;;;;;6.03;2.80;;;;;;;9.43;82.64;96372.34;4938769;28;20230;-82
2021/01/22 06:54:16;;;;;;;5.28;2.55;;;;;;;9.46;82.32;96387.28;4958719;28;20226;-81
2021/01/22 06:56:51;;;;;;;7.07;2.30;;;;;;;9.45;81.87;96382.91;4973911;28;20218;-80
2021/01/22 06:59:38;;;;;;;7.38;2.35;;;;;;;9.46;82.14;96379.22;4940673;28;20289;-81
2021/01/22 07:02:36;;;;;;;6.95;3.00;;;;;;;9.52;81.85;96386.63;4942000;28;20199;-80
2021/01/22 07:05:23;;;;;;;4.53;2.65;;;;;;;9.54;81.85;96395.34;4959125;28;20235;-82
2021/01/22 07:07:49;;;;;;;5.63;2.67;;;;;;;9.59;81.94;96398.41;4962554;28;20345;-82
2021/01/22 07:10:15;;;;;;;3.63;2.47;;;;;;;9.58;81.20;96399.41;4980619;28;20213;-81
2021/01/22 07:12:45;;;;;;;6.05;2.85;;;;;;;9.61;81.63;96396.38;4977179;28;20325;-81
2021/01/22 07:15:21;;;;;;;3.20;2.50;;;;;;;9.59;82.40;96391.22;4961877;28;20230;-81
2021/01/22 07:18:14;;;;;;;4.57;2.35;;;;;;;9.63;82.23;96397.91;4941914;28;20247;-81
2021/01/22 07:20:41;;;;;;;4.00;2.38;;;;;;;9.70;82.43;96404.31;4950691;28;20266;-81
2021/01/22 07:23:07;;;;;;;7.35;2.35;;;;;;;9.67;82.80;96399.28;4967937;28;20205;-82
2021/01/22 07:25:40;;;;;;;7.07;3.15;;;;;;;9.63;82.63;96397.09;4974840;28;20249;-80
2021/01/22 07:28:12;;;;;;;7.43;3.08;;;;;;;9.48;82.97;96401.34;4961723;28;20281;-81
2021/01/22 07:30:41;;;;;;;4.50;2.28;;;;;;;9.44;83.48;96410.75;4930912;28;20313;-82
2021/01/22 07:33:29;;;;;;;5.70;3.25;;;;;;;9.43;83.58;96409.03;4958361;28;20586;-82
2021/01/22 07:36:08;;;;;;;4.82;3.42;;;;;;;9.47;83.88;96415.78;4975949;28;20231;-81
2021/01/22 07:38:36;;;;;;;10.00;3.60;;;;;;;9.44;83.64;96411.56;4974163;28;20269;-81
2021/01/22 07:41:05;;;;;;;4.10;3.40;;;;;;;9.50;83.50;96410.09;4957548;28;20712;-81
2021/01/22 07:43:32;;;;;;;7.85;2.80;;;;;;;9.51;82.71;96407.25;4969198;28;20317;-81
2021/01/22 07:46:18;;;;;;;5.60;3.17;;;;;;;9.53;83.26;96409.78;4979790;28;20292;-82
2021/01/22 07:48:46;;;;;;;7.70;2.80;;;;;;;9.49;83.83;96411.06;4982568;28;20230;-82
2021/01/22 07:51:36;;;;;;;6.88;2.45;;;;;;;9.57;83.71;96421.88;4963822;28;20313;-82
2021/01/22 07:54:06;;;;;;;6.97;3.22;;;;;;;9.53;83.69;96421.34;4959881;28;20728;-82
2021/01/22 07:56:36;;;;;;;5.50;3.10;;;;;;;9.60;83.49;96429.59;4976645;28;20222;-82
2021/01/22 07:59:03;;;;;;;9.38;4.38;;;;;;;9.56;83.30;96422.84;4976051;28;20198;-81
2021/01/22 08:01:30;;;;;;;6.40;3.20;;;;;;;9.60;82.63;96422.38;4960797;28;20268;-81
2021/01/22 08:04:06;;;;;;;10.43;3.28;;;;;;;9.64;82.87;96426.41;4945311;28;20852;-82
2021/01/22 08:06:49;;;;;;;3.65;2.50;;;;;;;9.68;82.29;96429.63;4954258;28;20310;-82
2021/01/22 08:09:17;;;;;;;4.85;2.72;;;;;;;9.66;82.33;96421.75;4990992;28;20216;-81
2021/01/22 08:11:52;;;;;;;5.65;2.60;;;;;;;9.80;81.78;96441.75;4978335;28;20226;-81
2021/01/22 08:14:34;;;;;;;5.88;2.58;;;;;;;9.72;81.39;96450.63;4943658;28;20224;-82
2021/01/22 08:17:03;;;;;;;8.63;4.18;;;;;;;9.76;81.89;96451.16;4961345;28;20239;-82
2021/01/22 08:19:32;;;;;;;5.85;2.85;;;;;;;9.73;82.30;96446.09;4977005;28;20238;-82
2021/01/22 08:22:03;;;;;;;4.55;1.77;;;;;;;9.25;83.43;96459.22;4975788;28;20226;-82
2021/01/22 08:24:30;;;;;;;2.47;1.70;;;;;;;8.73;83.60;96466.31;4954523;28;20238;-82
2021/01/22 08:27:03;;;;;;;1.80;1.40;;;;;;;8.37;85.18;96463.78;4962755;28;20723;-82
2021/01/22 08:29:34;;;;;;;2.70;1.30;;;;;;;7.99;86.46;96488.06;4945199;28;20249;-81
2021/01/22 08:32:08;;;;;;;4.35;1.60;;;;;;;7.34;89.45;96493.53;4941865;28;20684;-82
2021/01/22 08:34:38;;;;;;;3.67;1.85;;;;;;;6.94;91.69;96499.09;4982408;28;20275;-82
2021/01/22 08:37:08;;;;;;;1.80;1.50;;;;;;;6.83;92.91;96517.91;4988759;28;20236;-82
2021/01/22 08:39:47;;;;;;;2.13;1.52;;;;;;;6.49;93.85;96527.31;4991923;28;20266;-81
2021/01/22 08:42:14;;;;;;;2.00;1.30;;;;;;;6.50;92.48;96529.00;4979305;28;20254;-80
2021/01/22 08:44:55;;;;;;;1.50;1.10;;;;;;;6.23;93.41;96525.31;4957932;28;20250;-81
2021/01/22 08:47:32;;;;;;;2.58;1.20;;;;;;;6.11;93.94;96521.09;4941141;28;20183;-83
2021/01/22 08:50:03;;;;;;;1.40;1.17;;;;;;;5.96;93.96;96530.44;4964817;28;20227;-82
2021/01/22 08:52:31;;;;;;;1.70;1.20;;;;;;;5.80;94.87;96546.09;4959560;28;20227;-83
2021/01/22 08:55:20;;;;;;;2.53;1.40;;;;;;;6.00;94.93;96550.53;4962290;28;20237;-82
2021/01/22 08:58:07;;;;;;;1.50;1.40;;;;;;;6.23;93.92;96554.66;4924328;29;20258;-83
2021/01/22 09:00:36;;;;;;;1.60;1.30;;;;;;;6.15;94.18;96558.03;4959520;28;20219;-82
2021/01/22 09:03:19;;;;;;;3.38;1.50;;;;;;;5.97;94.42;96572.97;4960213;28;20231;-81
2021/01/22 09:05:55;;;;;;;1.85;1.50;;;;;;;5.97;94.45;96570.31;4970948;28;20226;-81
2021/01/22 09:08:24;;;;;;;1.85;1.27;;;;;;;5.84;90.83;96582.16;4985847;28;20196;-82
2021/01/22 09:10:50;;;;;;;1.85;1.10;;;;;;;5.87;91.12;96594.38;4973639;28;20230;-80
2021/01/22 09:13:20;;;;;;;3.25;1.90;;;;;;;5.85;92.43;96599.00;4943787;28;20251;-83
2021/01/22 09:16:03;;;;;;;4.18;1.50;;;;;;;5.73;93.37;96611.56;4984048;28;20229;-82
2021/01/22 09:18:32;;;;;;;3.58;1.80;;;;;;;5.78;94.38;96625.31;4989819;28;20274;-82
2021/01/22 09:21:06;;;;;;;3.08;1.65;;;;;;;5.67;96.19;96629.88;4962313;28;20229;-83
2021/01/22 09:23:36;;;;;;;2.17;1.35;;;;;;;5.38;95.53;96634.19;4962862;28;20195;-83
2021/01/22 09:26:06;;;;;;;1.85;1.50;;;;;;;5.44;92.73;96649.66;4984504;28;20277;-83
2021/01/22 09:28:32;;;;;;;2.65;1.50;;;;;;;5.22;92.59;96658.59;4963162;28;20226;-83
2021/01/22 09:30:59;;;;;;;1.67;1.20;;;;;;;5.29;94.74;96673.09;4963694;28;20219;-83
2021/01/22 09:33:26;;;;;;;1.20;0.90;;;;;;;5.16;93.20;96674.25;4961322;28;20222;-83
2021/01/22 09:35:56;;;;;;;1.30;0.98;;;;;;;4.89;93.10;96673.84;4953030;28;20278;-83
2021/01/22 09:38:25;;;;;;;1.83;0.70;;;;;;;4.47;92.34;96683.50;4958973;28;20666;-82
2021/01/22 09:40:55;;;;;;;6.57;1.08;;;;;;;4.33;93.13;96686.41;4970502;28;20253;-82
2021/01/22 09:43:22;;;;;;;1.35;0.95;;;;;;;4.31;93.61;96687.50;4948732;28;20223;-82
2021/01/22 09:45:55;;;;;;;1.30;1.00;;;;;;;4.61;91.16;96707.19;4953999;28;20289;-82
2021/01/22 09:48:21;;;;;;;2.65;1.10;;;;;;;4.62;92.37;96706.22;4950768;28;20641;-82
2021/01/22 09:50:49;;;;;;;2.53;1.20;;;;;;;4.64;92.61;96716.75;4961333;28;20219;-82
2021/01/22 09:53:36;;;;;;;3.83;1.17;;;;;;;4.73;90.82;96719.50;4981033;28;20335;-82
2021/01/22 09:56:12;;;;;;;1.63;1.45;;;;;;;4.68;91.08;96724.34;4968801;28;20298;-82
2021/01/22 09:58:43;;;;;;;1.10;0.85;;;;;;;4.59;92.36;96735.75;4958124;28;20223;-82
2021/01/22 10:01:10;;;;;;;1.48;1.00;;;;;;;4.85;89.26;96744.28;4951109;28;20227;-79
2021/01/22 10:03:37;;;;;;;1.42;1.00;;;;;;;4.70;90.87;96743.72;4978505;28;20230;-80
2021/01/22 10:06:04;;;;;;;1.83;1.00;;;;;;;4.66;91.50;96736.06;4948279;28;20298;-80
2021/01/22 10:08:32;;;;;;;1.73;1.10;;;;;;;4.53;91.91;96736.22;4942848;28;20192;-82
2021/01/22 10:10:58;;;;;;;3.08;1.35;;;;;;;4.55;91.89;96738.78;4964292;28;20195;-82
2021/01/22 10:13:25;;;;;;;1.95;1.27;;;;;;;4.55;91.68;96739.59;4961008;28;20226;-82
2021/01/22 10:15:51;;;;;;;1.42;1.25;;;;;;;4.65;90.75;96743.22;4960550;28;20231;-82
2021/01/22 10:18:18;;;;;;;1.50;1.30;;;;;;;4.74;93.35;96733.69;4972713;28;20211;-79
2021/01/22 10:20:48;;;;;;;14.40;10.48;;;;;;;4.78;94.13;96738.63;4990027;28;20214;-80
2021/01/22 10:23:29;;;;;;;1.60;1.50;;;;;;;4.92;89.01;96738.34;4994837;28;20195;-79
2021/01/22 10:25:56;;;;;;;1.60;1.10;;;;;;;4.96;86.45;96747.78;4988486;28;20198;-81
2021/01/22 10:28:27;;;;;;;1.40;1.30;;;;;;;4.89;89.47;96748.41;4952140;28;20234;-80
2021/01/22 10:30:58;;;;;;;2.70;2.00;;;;;;;4.84;91.32;96745.25;4959607;28;20226;-82
2021/01/22 10:33:33;;;;;;;2.10;1.48;;;;;;;4.82;92.05;96745.38;4975277;28;20203;-82
2021/01/22 10:36:04;;;;;;;79.05;11.10;;;;;;;4.83;92.32;96755.06;4954316;28;20234;-82
2021/01/22 10:38:31;;;;;;;1.90;1.33;;;;;;;4.91;92.41;96749.97;4976320;28;20233;-82
2021/01/22 10:40:58;;;;;;;1.38;1.10;;;;;;;5.21;86.95;96752.78;4965704;28;20257;-82
2021/01/22 10:43:28;;;;;;;2.05;1.42;;;;;;;4.92;89.54;96756.97;4940711;28;20791;-80
2021/01/22 10:46:02;;;;;;;7.53;2.42;;;;;;;5.26;89.03;96747.94;4944024;28;20244;-81
2021/01/22 10:48:41;;;;;;;2.00;1.38;;;;;;;5.17;89.75;96743.38;4930830;29;20228;-82
2021/01/22 10:51:55;;;;;;;2.95;1.50;;;;;;;5.12;89.69;96755.38;4915687;28;20808;-80
2021/01/22 10:54:58;;;;;;;2.00;1.65;;;;;;;5.00;89.90;96757.19;4958633;28;20227;-83
2021/01/22 10:57:29;;;;;;;1.75;1.10;;;;;;;5.06;89.46;96754.03;4926745;28;20234;-83
2021/01/22 11:00:12;;;;;;;1.60;1.20;;;;;;;4.85;89.13;96758.44;4968058;28;20223;-82
2021/01/22 11:02:39;;;;;;;4.80;1.55;;;;;;;5.12;86.78;96782.84;4955415;28;20240;-82
2021/01/22 11:05:11;;;;;;;2.35;2.15;;;;;;;5.07;87.22;96771.72;4937147;28;20235;-81
2021/01/22 11:07:38;;;;;;;1.92;1.75;;;;;;;5.11;88.66;96745.69;4962051;28;20218;-80
2021/01/22 11:10:06;;;;;;;2.75;1.73;;;;;;;5.10;88.66;96757.31;4972450;28;20218;-83
2021/01/22 11:12:33;;;;;;;1.73;1.38;;;;;;;5.06;84.92;96783.34;4967698;28;20231;-81
2021/01/22 11:15:05;;;;;;;2.33;1.60;;;;;;;5.00;86.57;96780.34;4970117;28;20234;-82
2021/01/22 11:17:35;;;;;;;1.95;1.30;;;;;;;4.89;88.32;96764.38;4969019;28;20274;-82
2021/01/22 11:20:46;;;;;;;1.60;1.23;;;;;;;4.78;88.48;96791.00;4973125;28;21139;-82
2021/01/22 11:23:13;;;;;;;3.47;1.10;;;;;;;4.78;89.44;96798.97;4954285;28;20207;-83
2021/01/22 11:25:43;;;;;;;1.90;1.35;;;;;;;4.80;90.14;96784.59;4973065;28;20226;-84
2021/01/22 11:28:26;;;;;;;2.50;1.58;;;;;;;4.77;89.34;96786.66;4959799;28;20248;-84
2021/01/22 11:30:56;;;;;;;2.83;1.70;;;;;;;4.78;90.23;96799.84;4936703;28;20223;-84
2021/01/22 11:33:28;;;;;;;1.70;1.60;;;;;;;4.81;89.76;96799.59;4976787;28;20214;-84
2021/01/22 11:36:22;;;;;;;1.52;1.40;;;;;;;4.92;88.51;96794.25;4942432;28;20312;-85
2021/01/22 11:42:40;;;;;;;1.80;1.48;;;;;;;4.96;89.00;96798.38;4934336;28;20212;-83
2021/01/22 11:46:24;;;;;;;2.00;1.80;;;;;;;5.09;89.25;96806.22;4940990;28;20222;-80
2021/01/22 11:49:23;;;;;;;2.72;2.10;;;;;;;5.36;84.27;96802.16;4939714;28;20223;-81
2021/01/22 11:52:06;;;;;;;2.47;1.75;;;;;;;5.24;84.81;96805.81;4953337;28;20238;-79
2021/01/22 11:54:48;;;;;;;1.40;1.30;;;;;;;5.24;86.41;96796.97;4914265;28;20285;-81
2021/01/22 11:57:18;;;;;;;1.70;1.40;;;;;;;5.18;88.64;96803.66;4961319;28;20223;-82
2021/01/22 12:00:19;;;;;;;2.88;1.40;;;;;;;5.19;89.29;96797.34;4903539;28;20278;-82
2021/01/22 12:03:31;;;;;;;1.42;1.17;;;;;;;5.48;83.30;96790.50;4910791;28;20242;-82
2021/01/22 12:14:37;;;;;;;;;;;;;;;;;;;;;
2021/01/22 12:17:31;;;;;;;1.42;1.10;;;;;;;5.54;85.46;96774.00;4928618;28;20228;-82